createdAt,value
2023-06-27T00:00:15.843Z,74.73
2023-06-27T00:01:15.828Z,74.73
2023-06-27T00:02:15.882Z,74.73
2023-06-27T00:03:15.937Z,74.62
2023-06-27T00:04:15.775Z,74.82
2023-06-27T00:05:15.770Z,75.02
2023-06-27T00:06:15.825Z,74.82
2023-06-27T00:07:15.795Z,74.73
2023-06-27T00:08:15.737Z,74.82
2023-06-27T00:09:15.752Z,74.82
2023-06-27T00:10:15.766Z,75.13
2023-06-27T00:11:15.700Z,75.02
2023-06-27T00:12:15.713Z,75.13
2023-06-27T00:13:15.681Z,75.13
2023-06-27T00:14:15.811Z,75.13
2023-06-27T00:15:15.659Z,75.06
2023-06-27T00:16:15.644Z,74.93
2023-06-27T00:17:15.635Z,75.16
2023-06-27T00:18:15.671Z,75.13
2023-06-27T00:19:15.607Z,75.13
2023-06-27T00:20:15.603Z,75.16
2023-06-27T00:21:15.582Z,75.13
2023-06-27T00:22:15.569Z,75.16
2023-06-27T00:23:15.578Z,75.16
2023-06-27T00:24:15.562Z,75.13
2023-06-27T00:25:15.607Z,75.02
2023-06-27T00:26:15.638Z,75.13
2023-06-27T00:27:15.516Z,74.82
2023-06-27T00:28:15.500Z,74.52
2023-06-27T00:29:15.518Z,74.52
2023-06-27T00:30:15.517Z,74.55
2023-06-27T00:31:15.547Z,74.86
2023-06-27T00:32:15.467Z,74.55
2023-06-27T00:33:15.445Z,74.66
2023-06-27T00:34:15.442Z,74.66
2023-06-27T00:35:15.420Z,74.86
2023-06-27T00:36:15.458Z,74.76
2023-06-27T00:37:15.401Z,74.66
2023-06-27T00:38:15.390Z,74.86
2023-06-27T00:39:15.383Z,74.76
2023-06-27T00:40:15.407Z,74.76
2023-06-27T00:41:15.371Z,75.16
2023-06-27T00:42:15.404Z,74.96
2023-06-27T00:43:15.336Z,74.76
2023-06-27T00:44:15.319Z,75.26
2023-06-27T00:45:15.310Z,74.86
2023-06-27T00:46:15.365Z,75.26
2023-06-27T00:47:15.286Z,74.96
2023-06-27T00:48:15.305Z,75.20
2023-06-27T00:49:15.281Z,74.96
2023-06-27T00:50:15.366Z,75.16
2023-06-27T00:51:15.245Z,74.86
2023-06-27T00:52:15.231Z,75.16
2023-06-27T00:53:15.214Z,74.96
2023-06-27T00:54:15.241Z,74.96
2023-06-27T00:55:15.222Z,75.30
2023-06-27T00:56:15.192Z,74.96
2023-06-27T00:57:15.200Z,74.99
2023-06-27T00:58:15.165Z,75.50
2023-06-27T00:59:15.153Z,75.50
2023-06-27T01:00:15.187Z,74.96
2023-06-27T01:01:15.127Z,75.36
2023-06-27T01:02:15.119Z,75.46
2023-06-27T01:03:15.214Z,75.30
2023-06-27T01:04:15.104Z,74.96
2023-06-27T01:05:15.088Z,75.26
2023-06-27T01:06:15.083Z,75.50
2023-06-27T01:07:15.147Z,75.50
2023-06-27T01:08:15.044Z,75.50
2023-06-27T01:09:15.035Z,75.20
2023-06-27T01:10:15.055Z,75.50
2023-06-27T01:11:15.068Z,75.40
2023-06-27T01:12:15.017Z,75.40
2023-06-27T01:13:15.053Z,75.20
2023-06-27T01:14:14.980Z,75.50
2023-06-27T01:15:15.057Z,75.40
2023-06-27T01:16:14.952Z,75.50
2023-06-27T01:17:14.956Z,75.20
2023-06-27T01:18:14.966Z,75.43
2023-06-27T01:19:14.929Z,75.30
2023-06-27T01:20:14.968Z,75.50
2023-06-27T01:21:14.933Z,75.30
2023-06-27T01:22:14.938Z,75.63
2023-06-27T01:23:14.880Z,75.63
2023-06-27T01:24:14.932Z,75.43
2023-06-27T01:25:14.857Z,75.43
2023-06-27T01:26:14.841Z,75.43
2023-06-27T01:27:14.833Z,75.63
2023-06-27T01:28:14.829Z,75.54
2023-06-27T01:29:14.833Z,75.43
2023-06-27T01:30:14.824Z,75.43
2023-06-27T01:31:14.835Z,75.43
2023-06-27T01:32:14.780Z,75.54
2023-06-27T01:33:14.763Z,75.13
2023-06-27T01:34:14.756Z,75.54
2023-06-27T01:35:14.746Z,75.34
2023-06-27T01:36:14.767Z,75.54
2023-06-27T01:37:14.723Z,75.43
2023-06-27T01:38:14.726Z,75.43
2023-06-27T01:39:14.732Z,75.43
2023-06-27T01:40:14.685Z,75.43
2023-06-27T01:41:14.698Z,75.54
2023-06-27T01:42:14.678Z,75.43
2023-06-27T01:43:14.662Z,75.43
2023-06-27T01:44:14.668Z,75.54
2023-06-27T01:45:14.666Z,75.63
2023-06-27T01:46:14.859Z,75.63
2023-06-27T01:47:14.638Z,75.63
2023-06-27T01:48:14.616Z,75.43
2023-06-27T01:49:14.608Z,75.63
2023-06-27T01:50:14.589Z,75.43
2023-06-27T01:51:14.565Z,75.84
2023-06-27T01:52:14.558Z,75.43
2023-06-27T01:53:14.540Z,75.74
2023-06-27T01:54:14.565Z,75.54
2023-06-27T01:55:14.536Z,75.54
2023-06-27T01:56:14.510Z,75.54
2023-06-27T01:57:14.504Z,75.54
2023-06-27T01:58:14.485Z,75.54
2023-06-27T01:59:14.469Z,75.63
2023-06-27T02:00:14.503Z,75.63
2023-06-27T02:01:14.547Z,75.84
2023-06-27T02:02:14.453Z,75.63
2023-06-27T02:03:14.584Z,75.57
2023-06-27T02:04:14.424Z,75.74
2023-06-27T02:05:14.422Z,75.67
2023-06-27T02:06:14.447Z,75.74
2023-06-27T02:07:14.408Z,75.74
2023-06-27T02:08:14.402Z,75.67
2023-06-27T02:09:14.356Z,75.98
2023-06-27T02:10:14.368Z,75.87
2023-06-27T02:11:14.346Z,75.87
2023-06-27T02:12:14.353Z,75.77
2023-06-27T02:13:14.309Z,75.67
2023-06-27T02:14:14.362Z,75.81
2023-06-27T02:15:14.307Z,75.71
2023-06-27T02:16:14.283Z,75.67
2023-06-27T02:17:14.316Z,75.31
2023-06-27T02:18:14.286Z,75.91
2023-06-27T02:19:14.255Z,75.40
2023-06-27T02:20:14.259Z,76.11
2023-06-27T02:21:14.229Z,75.57
2023-06-27T02:22:14.244Z,75.71
2023-06-27T02:23:14.200Z,76.11
2023-06-27T02:24:14.219Z,75.71
2023-06-27T02:25:14.175Z,75.51
2023-06-27T02:26:14.197Z,75.71
2023-06-27T02:27:14.203Z,75.60
2023-06-27T02:28:14.141Z,76.01
2023-06-27T02:29:14.127Z,75.71
2023-06-27T02:30:14.224Z,75.91
2023-06-27T02:31:14.158Z,75.91
2023-06-27T02:32:14.103Z,76.21
2023-06-27T02:33:14.117Z,76.42
2023-06-27T02:34:14.070Z,76.42
2023-06-27T02:35:14.065Z,76.51
2023-06-27T02:36:14.157Z,76.51
2023-06-27T02:37:14.042Z,76.51
2023-06-27T02:38:14.030Z,76.42
2023-06-27T02:39:14.037Z,76.62
2023-06-27T02:40:14.004Z,76.31
2023-06-27T02:41:13.993Z,76.31
2023-06-27T02:42:14.009Z,76.31
2023-06-27T02:43:13.989Z,76.42
2023-06-27T02:44:13.961Z,76.51
2023-06-27T02:45:13.948Z,76.51
2023-06-27T02:46:13.965Z,76.51
2023-06-27T02:47:13.938Z,76.42
2023-06-27T02:48:14.101Z,76.42
2023-06-27T02:49:13.928Z,76.31
2023-06-27T02:50:13.903Z,76.31
2023-06-27T02:51:13.879Z,76.31
2023-06-27T02:52:13.869Z,76.31
2023-06-27T02:53:13.854Z,76.42
2023-06-27T02:54:13.879Z,76.31
2023-06-27T02:55:13.848Z,76.21
2023-06-27T02:56:13.820Z,76.21
2023-06-27T02:57:13.806Z,76.21
2023-06-27T02:58:13.796Z,76.31
2023-06-27T02:59:13.782Z,76.31
2023-06-27T03:00:13.797Z,76.31
2023-06-27T03:01:13.772Z,76.31
2023-06-27T03:02:13.752Z,76.42
2023-06-27T03:03:13.897Z,76.21
2023-06-27T03:04:19.605Z,76.31
2023-06-27T03:05:14.780Z,76.31
2023-06-27T03:06:13.705Z,76.31
2023-06-27T03:07:13.719Z,76.28
2023-06-27T03:08:13.689Z,76.21
2023-06-27T03:09:13.668Z,76.42
2023-06-27T03:10:13.683Z,76.42
2023-06-27T03:11:13.686Z,76.42
2023-06-27T03:12:13.673Z,76.31
2023-06-27T03:13:13.630Z,76.21
2023-06-27T03:14:13.615Z,76.31
2023-06-27T03:15:13.664Z,76.62
2023-06-27T03:16:13.594Z,76.31
2023-06-27T03:17:13.743Z,76.51
2023-06-27T03:18:13.577Z,76.42
2023-06-27T03:19:13.581Z,76.58
2023-06-27T03:20:13.568Z,76.68
2023-06-27T03:21:13.597Z,76.28
2023-06-27T03:22:13.564Z,76.28
2023-06-27T03:23:13.535Z,76.18
2023-06-27T03:24:13.506Z,75.74
2023-06-27T03:25:13.487Z,75.54
2023-06-27T03:26:13.478Z,75.63
2023-06-27T03:27:13.548Z,75.54
2023-06-27T03:28:13.459Z,75.30
2023-06-27T03:29:13.636Z,75.40
2023-06-27T03:30:13.440Z,75.40
2023-06-27T03:31:13.420Z,75.40
2023-06-27T03:32:13.468Z,75.60
2023-06-27T03:33:13.408Z,75.60
2023-06-27T03:34:13.387Z,75.60
2023-06-27T03:35:13.426Z,75.50
2023-06-27T03:36:13.370Z,75.36
2023-06-27T03:37:13.376Z,75.16
2023-06-27T03:38:13.342Z,75.46
2023-06-27T03:39:13.328Z,75.76
2023-06-27T03:40:13.321Z,75.56
2023-06-27T03:41:13.340Z,75.56
2023-06-27T03:42:13.295Z,75.46
2023-06-27T03:43:13.283Z,75.46
2023-06-27T03:44:13.347Z,75.56
2023-06-27T03:45:13.266Z,75.53
2023-06-27T03:46:13.250Z,75.13
2023-06-27T03:47:13.267Z,75.13
2023-06-27T03:48:13.243Z,75.63
2023-06-27T03:49:13.298Z,75.53
2023-06-27T03:50:13.219Z,75.53
2023-06-27T03:51:13.203Z,75.29
2023-06-27T03:52:13.193Z,75.29
2023-06-27T03:53:13.323Z,75.19
2023-06-27T03:54:13.159Z,75.09
2023-06-27T03:55:13.191Z,75.09
2023-06-27T03:56:13.138Z,75.19
2023-06-27T03:57:13.169Z,75.29
2023-06-27T03:58:13.154Z,75.26
2023-06-27T03:59:13.167Z,75.26
2023-06-27T04:00:13.091Z,75.26
2023-06-27T04:01:13.083Z,75.35
2023-06-27T04:02:13.084Z,75.15
2023-06-27T04:03:13.219Z,75.32
2023-06-27T04:04:14.995Z,74.92
2023-06-27T04:05:13.211Z,74.82
2023-06-27T04:06:13.030Z,74.92
2023-06-27T04:07:13.072Z,74.72
2023-06-27T04:08:13.010Z,74.88
2023-06-27T04:09:13.020Z,74.88
2023-06-27T04:10:12.981Z,74.98
2023-06-27T04:11:13.011Z,74.35
2023-06-27T04:12:12.963Z,74.44
2023-06-27T04:13:12.951Z,74.55
2023-06-27T04:14:12.934Z,74.55
2023-06-27T04:15:12.927Z,74.91
2023-06-27T04:16:12.914Z,74.81
2023-06-27T04:17:13.074Z,74.61
2023-06-27T04:18:12.958Z,74.51
2023-06-27T04:19:12.878Z,74.81
2023-06-27T04:20:12.881Z,75.01
2023-06-27T04:21:12.859Z,75.21
2023-06-27T04:22:12.853Z,75.11
2023-06-27T04:23:12.886Z,75.01
2023-06-27T04:24:12.846Z,75.18
2023-06-27T04:25:12.840Z,75.08
2023-06-27T04:26:12.800Z,75.08
2023-06-27T04:27:12.805Z,75.21
2023-06-27T04:28:12.779Z,75.21
2023-06-27T04:29:12.816Z,75.21
2023-06-27T04:30:12.756Z,75.42
2023-06-27T04:31:12.785Z,75.11
2023-06-27T04:32:12.733Z,75.31
2023-06-27T04:33:12.720Z,75.21
2023-06-27T04:34:12.710Z,75.31
2023-06-27T04:35:12.752Z,75.42
2023-06-27T04:36:12.688Z,75.11
2023-06-27T04:37:12.675Z,75.42
2023-06-27T04:38:14.001Z,75.42
2023-06-27T04:39:12.766Z,75.31
2023-06-27T04:40:12.645Z,75.21
2023-06-27T04:41:12.681Z,74.71
2023-06-27T04:42:12.619Z,75.01
2023-06-27T04:43:12.610Z,75.45
2023-06-27T04:44:12.599Z,75.25
2023-06-27T04:45:12.600Z,75.21
2023-06-27T04:46:12.659Z,75.31
2023-06-27T04:47:12.615Z,75.42
2023-06-27T04:48:12.558Z,75.25
2023-06-27T04:49:12.541Z,75.11
2023-06-27T04:50:12.532Z,75.35
2023-06-27T04:51:12.520Z,75.25
2023-06-27T04:52:12.576Z,75.25
2023-06-27T04:53:12.531Z,75.15
2023-06-27T04:54:12.497Z,75.85
2023-06-27T04:55:12.472Z,75.35
2023-06-27T04:56:12.466Z,75.35
2023-06-27T04:57:13.513Z,75.65
2023-06-27T04:58:12.478Z,75.25
2023-06-27T04:59:12.459Z,75.15
2023-06-27T05:00:12.434Z,75.25
2023-06-27T05:01:12.467Z,75.35
2023-06-27T05:02:12.396Z,75.25
2023-06-27T05:03:12.428Z,75.35
2023-06-27T05:04:12.369Z,75.29
2023-06-27T05:05:12.638Z,75.45
2023-06-27T05:06:12.354Z,75.35
2023-06-27T05:07:12.424Z,75.15
2023-06-27T05:08:12.356Z,75.65
2023-06-27T05:09:12.316Z,75.45
2023-06-27T05:10:12.306Z,75.35
2023-06-27T05:11:12.330Z,75.18
2023-06-27T05:12:12.279Z,75.49
2023-06-27T05:13:12.304Z,75.68
2023-06-27T05:14:12.254Z,75.89
2023-06-27T05:15:12.246Z,75.89
2023-06-27T05:16:12.231Z,75.68
2023-06-27T05:17:12.249Z,75.29
2023-06-27T05:18:12.209Z,75.79
2023-06-27T05:19:12.196Z,75.18
2023-06-27T05:20:12.186Z,75.18
2023-06-27T05:21:12.181Z,75.29
2023-06-27T05:22:12.162Z,75.18
2023-06-27T05:23:12.178Z,75.49
2023-06-27T05:24:12.145Z,75.52
2023-06-27T05:25:12.232Z,75.42
2023-06-27T05:26:12.120Z,75.62
2023-06-27T05:27:12.101Z,75.18
2023-06-27T05:28:12.102Z,75.32
2023-06-27T05:29:12.143Z,75.09
2023-06-27T05:30:12.088Z,75.09
2023-06-27T05:31:12.101Z,75.18
2023-06-27T05:32:12.049Z,75.09
2023-06-27T05:33:12.103Z,75.72
2023-06-27T05:34:12.038Z,75.32
2023-06-27T05:35:12.091Z,75.62
2023-06-27T05:36:12.011Z,76.43
2023-06-27T05:37:11.994Z,76.16
2023-06-27T05:38:11.991Z,76.16
2023-06-27T05:39:11.971Z,76.12
2023-06-27T05:40:11.957Z,76.16
2023-06-27T05:41:12.053Z,76.23
2023-06-27T05:42:11.981Z,75.82
2023-06-27T05:43:11.929Z,75.52
2023-06-27T05:44:11.916Z,75.22
2023-06-27T05:45:11.943Z,75.42
2023-06-27T05:46:11.889Z,75.42
2023-06-27T05:47:11.917Z,75.59
2023-06-27T05:48:11.878Z,75.29
2023-06-27T05:49:11.866Z,74.95
2023-06-27T05:50:11.851Z,74.71
2023-06-27T05:51:11.838Z,74.51
2023-06-27T05:52:11.830Z,74.31
2023-06-27T05:53:11.858Z,74.88
2023-06-27T05:54:11.803Z,74.44
2023-06-27T05:55:11.811Z,74.74
2023-06-27T05:56:11.788Z,74.84
2023-06-27T05:57:11.769Z,74.30
2023-06-27T05:58:11.787Z,74.40
2023-06-27T05:59:11.849Z,74.40
2023-06-27T06:00:11.768Z,74.57
2023-06-27T06:01:11.757Z,74.47
2023-06-27T06:02:11.730Z,74.43
2023-06-27T06:03:11.838Z,74.77
2023-06-27T06:04:11.741Z,74.50
2023-06-27T06:05:11.723Z,74.10
2023-06-27T06:06:11.671Z,74.20
2023-06-27T06:07:11.718Z,73.76
2023-06-27T06:08:11.646Z,74.03
2023-06-27T06:09:11.633Z,73.93
2023-06-27T06:10:11.651Z,73.83
2023-06-27T06:11:11.652Z,73.79
2023-06-27T06:12:11.604Z,73.75
2023-06-27T06:13:11.593Z,73.66
2023-06-27T06:14:11.576Z,73.72
2023-06-27T06:15:11.565Z,73.52
2023-06-27T06:16:11.553Z,73.69
2023-06-27T06:17:11.643Z,73.39
2023-06-27T06:18:11.534Z,73.45
2023-06-27T06:19:11.540Z,73.05
2023-06-27T06:20:11.510Z,73.32
2023-06-27T06:21:11.512Z,73.02
2023-06-27T06:22:11.490Z,73.22
2023-06-27T06:23:11.546Z,72.78
2023-06-27T06:24:11.463Z,72.78
2023-06-27T06:25:11.479Z,72.95
2023-06-27T06:26:11.446Z,72.65
2023-06-27T06:27:11.429Z,72.22
2023-06-27T06:28:11.417Z,72.28
2023-06-27T06:29:11.569Z,71.95
2023-06-27T06:30:11.397Z,71.95
2023-06-27T06:31:11.428Z,72.11
2023-06-27T06:32:11.371Z,71.81
2023-06-27T06:33:11.506Z,72.21
2023-06-27T06:34:11.354Z,71.91
2023-06-27T06:35:11.385Z,72.01
2023-06-27T06:36:11.326Z,72.31
2023-06-27T06:37:11.414Z,72.31
2023-06-27T06:38:11.302Z,72.11
2023-06-27T06:39:11.320Z,72.08
2023-06-27T06:40:11.284Z,72.38
2023-06-27T06:41:11.365Z,72.67
2023-06-27T06:42:11.260Z,72.67
2023-06-27T06:43:11.955Z,72.47
2023-06-27T06:44:11.233Z,72.28
2023-06-27T06:45:11.961Z,72.87
2023-06-27T06:46:11.292Z,72.24
2023-06-27T06:47:11.238Z,72.14
2023-06-27T06:48:11.195Z,71.91
2023-06-27T06:49:11.233Z,71.81
2023-06-27T06:50:11.175Z,71.48
2023-06-27T06:51:11.200Z,71.44
2023-06-27T06:52:11.185Z,71.34
2023-06-27T06:53:11.195Z,71.44
2023-06-27T06:54:11.146Z,71.14
2023-06-27T06:55:11.143Z,71.34
2023-06-27T06:56:11.120Z,71.11
2023-06-27T06:57:11.096Z,71.21
2023-06-27T06:58:12.002Z,71.31
2023-06-27T06:59:11.108Z,71.31
2023-06-27T07:00:11.071Z,71.21
2023-06-27T07:01:11.097Z,71.17
2023-06-27T07:02:11.045Z,71.47
2023-06-27T07:03:11.116Z,71.57
2023-06-27T07:04:11.094Z,71.87
2023-06-27T07:05:11.168Z,71.81
2023-06-27T07:06:11.017Z,71.77
2023-06-27T07:07:11.083Z,71.67
2023-06-27T07:08:10.985Z,71.87
2023-06-27T07:09:10.972Z,71.57
2023-06-27T07:10:10.973Z,71.77
2023-06-27T07:11:10.973Z,71.83
2023-06-27T07:12:10.933Z,71.64
2023-06-27T07:13:10.916Z,71.20
2023-06-27T07:14:10.902Z,71.11
2023-06-27T07:15:10.899Z,70.91
2023-06-27T07:16:10.921Z,70.87
2023-06-27T07:17:10.887Z,70.97
2023-06-27T07:18:10.857Z,71.27
2023-06-27T07:19:11.419Z,71.17
2023-06-27T07:20:11.488Z,71.04
2023-06-27T07:21:10.881Z,71.04
2023-06-27T07:22:10.819Z,71.04
2023-06-27T07:23:10.835Z,71.04
2023-06-27T07:24:10.808Z,71.23
2023-06-27T07:25:10.783Z,71.63
2023-06-27T07:26:10.771Z,71.67
2023-06-27T07:27:10.782Z,71.57
2023-06-27T07:28:10.771Z,71.44
2023-06-27T07:29:10.786Z,71.04
2023-06-27T07:30:10.748Z,70.90
2023-06-27T07:31:10.821Z,70.81
2023-06-27T07:32:10.728Z,71.00
2023-06-27T07:33:10.701Z,71.11
2023-06-27T07:34:10.679Z,71.00
2023-06-27T07:35:10.781Z,71.60
2023-06-27T07:36:10.655Z,71.70
2023-06-27T07:37:10.709Z,71.70
2023-06-27T07:38:10.664Z,71.60
2023-06-27T07:39:10.625Z,71.60
2023-06-27T07:40:10.608Z,71.40
2023-06-27T07:41:10.645Z,71.60
2023-06-27T07:43:36.165Z,71.07
2023-06-27T07:44:36.117Z,71.11
2023-06-27T07:45:36.080Z,71.80
2023-06-27T07:46:36.134Z,71.80
2023-06-27T07:47:37.213Z,71.40
2023-06-27T07:48:36.039Z,70.90
2023-06-27T07:49:36.549Z,71.20
2023-06-27T07:50:36.017Z,71.26
2023-06-27T07:51:36.006Z,71.17
2023-06-27T07:52:36.106Z,71.17
2023-06-27T07:55:24.232Z,70.87
2023-06-27T07:56:31.000Z,71.40
2023-06-27T07:57:23.950Z,71.63
2023-06-27T07:58:24.145Z,72.22
2023-06-27T07:59:23.924Z,72.22
2023-06-27T08:00:23.952Z,71.63
2023-06-27T08:01:24.568Z,71.53
2023-06-27T08:02:24.028Z,71.50
2023-06-27T08:03:25.070Z,71.50
2023-06-27T08:04:24.172Z,71.44
2023-06-27T08:05:24.534Z,71.60
2023-06-27T08:06:23.931Z,72.33
2023-06-27T08:07:24.564Z,72.33
2023-06-27T08:08:23.880Z,71.93
2023-06-27T08:09:24.529Z,72.75
2023-06-27T08:10:23.879Z,72.75
2023-06-27T08:11:24.609Z,72.96
2023-06-27T08:12:24.107Z,73.05
2023-06-27T08:13:23.816Z,72.75
2023-06-27T08:14:23.900Z,72.46
2023-06-27T08:15:23.748Z,71.93
2023-06-27T08:16:24.296Z,71.63
2023-06-27T08:17:23.994Z,71.23
2023-06-27T08:18:30.786Z,71.00
2023-06-27T08:20:51.496Z,71.14
2023-06-27T08:21:51.560Z,71.44
2023-06-27T08:22:51.476Z,71.44
2023-06-27T08:23:51.543Z,71.53
2023-06-27T08:24:51.420Z,71.34
2023-06-27T08:25:51.707Z,71.11
2023-06-27T08:26:51.371Z,70.81
2023-06-27T08:27:51.409Z,71.00
2023-06-27T08:28:51.353Z,71.07
2023-06-27T08:29:51.368Z,70.77
2023-06-27T08:30:51.425Z,70.87
2023-06-27T08:31:51.459Z,70.94
2023-06-27T08:32:51.506Z,70.64
2023-06-27T08:33:51.349Z,70.44
2023-06-27T08:34:51.355Z,70.54
2023-06-27T08:35:51.297Z,70.94
2023-06-27T08:36:51.490Z,70.74
2023-06-27T08:37:51.389Z,70.80
2023-06-27T08:38:51.241Z,70.74
2023-06-27T08:39:51.373Z,70.70
2023-06-27T08:40:51.250Z,71.14
2023-06-27T08:41:51.374Z,71.33
2023-06-27T08:42:51.224Z,71.14
2023-06-27T08:43:51.391Z,70.94
2023-06-27T08:44:51.185Z,71.03
2023-06-27T08:45:51.348Z,70.84
2023-06-27T08:46:51.192Z,71.03
2023-06-27T08:47:51.403Z,71.23
2023-06-27T08:48:51.144Z,71.03
2023-06-27T08:49:51.150Z,71.14
2023-06-27T08:50:51.108Z,71.14
2023-06-27T08:51:51.193Z,71.17
2023-06-27T08:52:51.084Z,71.47
2023-06-27T08:53:51.080Z,71.47
2023-06-27T08:54:51.231Z,71.56
2023-06-27T08:55:51.085Z,71.50
2023-06-27T08:56:51.039Z,71.07
2023-06-27T08:57:51.806Z,71.07
2023-06-27T08:58:51.753Z,71.07
2023-06-27T08:59:51.344Z,71.07
2023-06-27T09:00:51.203Z,71.14
2023-06-27T09:01:51.442Z,70.87
2023-06-27T09:02:51.041Z,70.87
2023-06-27T09:03:51.146Z,71.14
2023-06-27T09:04:50.966Z,70.74
2023-06-27T09:05:50.965Z,70.25
2023-06-27T09:06:51.008Z,70.01
2023-06-27T09:07:51.016Z,69.68
2023-06-27T09:08:51.088Z,69.68
2023-06-27T09:09:51.167Z,69.68
2023-06-27T09:10:51.989Z,69.68
2023-06-27T09:11:51.050Z,69.78
2023-06-27T09:12:50.878Z,70.08
2023-06-27T09:13:50.858Z,70.77
2023-06-27T09:14:50.853Z,70.61
2023-06-27T09:15:51.627Z,70.80
2023-06-27T09:16:51.147Z,70.84
2023-06-27T09:17:50.888Z,70.97
2023-06-27T09:20:29.764Z,71.76
2023-06-27T09:21:30.298Z,71.80
2023-06-27T09:22:29.863Z,71.80
2023-06-27T09:23:29.740Z,71.89
2023-06-27T09:24:29.740Z,72.03
2023-06-27T09:25:32.437Z,72.13
2023-06-27T09:26:29.687Z,72.26
2023-06-27T09:27:30.130Z,72.46
2023-06-27T09:28:29.761Z,72.46
2023-06-27T09:33:14.322Z,71.77
2023-06-27T09:34:14.430Z,72.49
2023-06-27T09:35:14.245Z,72.43
2023-06-27T09:38:46.802Z,72.86
2023-06-27T09:39:43.743Z,73.06
2023-06-27T09:40:43.855Z,73.06
2023-06-27T09:41:43.695Z,72.96
2023-06-27T09:42:43.759Z,73.16
2023-06-27T09:43:44.629Z,73.06
2023-06-27T09:44:43.722Z,72.56
2023-06-27T09:45:44.399Z,72.92
2023-06-27T09:46:43.611Z,72.33
2023-06-27T09:47:45.086Z,72.63
2023-06-27T09:48:43.610Z,72.09
2023-06-27T09:49:45.187Z,71.60
2023-06-27T09:50:43.808Z,71.70
2023-06-27T09:51:43.547Z,71.80
2023-06-27T09:52:44.409Z,71.27
2023-06-27T09:55:22.096Z,70.74
2023-06-27T09:56:22.072Z,70.94
2023-06-27T09:57:22.785Z,70.94
2023-06-27T10:01:05.119Z,69.85
2023-06-27T10:02:05.075Z,69.98
2023-06-27T10:07:16.128Z,70.70
2023-06-27T10:10:14.082Z,69.19
2023-06-27T10:11:14.134Z,69.49
2023-06-27T10:12:13.992Z,69.55
2023-06-27T10:13:14.067Z,69.45
2023-06-27T10:14:13.966Z,69.22
2023-06-27T10:15:13.981Z,69.02
2023-06-27T10:16:13.990Z,68.89
2023-06-27T10:17:13.932Z,68.76
2023-06-27T10:18:13.921Z,68.04
2023-06-27T10:19:14.120Z,68.24
2023-06-27T10:20:13.903Z,68.20
2023-06-27T10:21:13.939Z,68.30
2023-06-27T10:22:13.896Z,68.27
2023-06-27T10:23:13.921Z,68.37
2023-06-27T10:24:13.867Z,68.13
2023-06-27T10:25:13.948Z,68.43
2023-06-27T10:26:13.913Z,68.23
2023-06-27T10:27:13.827Z,68.56
2023-06-27T10:28:13.815Z,68.99
2023-06-27T10:29:13.802Z,69.51
2023-06-27T10:30:13.912Z,70.43
2023-06-27T10:31:13.981Z,70.07
2023-06-27T10:32:13.961Z,70.83
2023-06-27T10:33:13.774Z,70.83
2023-06-27T10:34:13.748Z,71.00
2023-06-27T10:35:13.732Z,71.56
2023-06-27T10:36:13.925Z,71.70
2023-06-27T10:37:13.787Z,72.56
2023-06-27T10:38:13.698Z,72.60
2023-06-27T10:39:13.684Z,72.92
2023-06-27T10:40:13.686Z,73.29
2023-06-27T10:41:13.686Z,73.72
2023-06-27T10:42:13.672Z,74.06
2023-06-27T10:43:13.673Z,74.23
2023-06-27T10:44:13.629Z,74.46
2023-06-27T10:45:13.636Z,74.60
2023-06-27T10:46:13.618Z,74.69
2023-06-27T10:47:13.600Z,74.63
2023-06-27T10:48:13.643Z,74.67
2023-06-27T10:49:13.614Z,75.50
2023-06-27T10:50:13.707Z,75.54
2023-06-27T10:51:13.551Z,75.37
2023-06-27T10:52:13.542Z,75.41
2023-06-27T10:53:13.528Z,75.11
2023-06-27T10:54:13.533Z,75.45
2023-06-27T10:55:13.535Z,75.18
2023-06-27T10:56:13.498Z,75.28
2023-06-27T10:57:13.482Z,75.32
2023-06-27T10:58:13.473Z,75.65
2023-06-27T10:59:13.535Z,75.56
2023-06-27T11:00:13.461Z,75.52
2023-06-27T11:01:13.483Z,75.67
2023-06-27T11:02:13.490Z,75.40
2023-06-27T11:03:13.660Z,76.28
2023-06-27T11:04:13.693Z,76.61
2023-06-27T11:05:13.503Z,77.05
2023-06-27T11:06:13.424Z,76.95
2023-06-27T11:07:13.458Z,76.89
2023-06-27T11:08:13.407Z,77.22
2023-06-27T11:09:13.351Z,76.92
2023-06-27T11:10:13.371Z,77.46
2023-06-27T11:11:13.326Z,76.96
2023-06-27T11:12:13.348Z,77.00
2023-06-27T11:13:13.358Z,77.26
2023-06-27T11:14:13.290Z,77.09
2023-06-27T11:15:13.307Z,77.00
2023-06-27T11:16:13.309Z,77.03
2023-06-27T11:17:13.263Z,77.43
2023-06-27T11:18:13.300Z,76.79
2023-06-27T11:19:19.943Z,77.13
2023-06-27T11:20:14.544Z,77.03
2023-06-27T11:21:15.088Z,76.93
2023-06-27T11:22:13.215Z,76.73
2023-06-27T11:23:13.194Z,76.93
2023-06-27T11:24:13.255Z,77.03
2023-06-27T11:25:13.189Z,76.73
2023-06-27T11:26:13.158Z,76.53
2023-06-27T11:27:13.151Z,76.12
2023-06-27T11:28:13.140Z,76.19
2023-06-27T11:29:13.120Z,76.12
2023-06-27T11:30:13.147Z,76.19
2023-06-27T11:31:13.177Z,76.23
2023-06-27T11:32:13.097Z,76.12
2023-06-27T11:33:13.130Z,76.03
2023-06-27T11:34:13.064Z,76.53
2023-06-27T11:35:13.054Z,76.49
2023-06-27T11:36:13.088Z,76.19
2023-06-27T11:37:13.101Z,75.99
2023-06-27T11:38:13.065Z,76.09
2023-06-27T11:39:13.016Z,75.75
2023-06-27T11:40:13.002Z,75.75
2023-06-27T11:41:12.991Z,75.71
2023-06-27T11:42:12.976Z,75.82
2023-06-27T11:43:13.002Z,76.02
2023-06-27T11:44:12.961Z,75.71
2023-06-27T11:45:12.943Z,75.62
2023-06-27T11:46:12.936Z,75.82
2023-06-27T11:47:12.920Z,75.78
2023-06-27T11:48:12.922Z,75.98
2023-06-27T11:49:12.931Z,75.78
2023-06-27T11:50:12.885Z,75.78
2023-06-27T11:51:12.904Z,75.98
2023-06-27T11:52:12.900Z,76.18
2023-06-27T11:53:12.853Z,76.04
2023-06-27T11:54:12.839Z,75.95
2023-06-27T11:55:12.864Z,75.95
2023-06-27T11:56:21.295Z,76.04
2023-06-27T11:57:13.807Z,76.15
2023-06-27T11:58:12.797Z,76.15
2023-06-27T11:59:12.788Z,76.04
2023-06-27T12:00:12.772Z,76.04
2023-06-27T12:01:12.841Z,75.84
2023-06-27T12:02:12.747Z,76.34
2023-06-27T12:03:12.882Z,76.65
2023-06-27T12:04:12.897Z,77.15
2023-06-27T12:05:12.717Z,77.05
2023-06-27T12:06:12.707Z,76.95
2023-06-27T12:07:12.803Z,76.45
2023-06-27T12:08:12.708Z,76.75
2023-06-27T12:09:12.671Z,76.54
2023-06-27T12:10:12.661Z,76.65
2023-06-27T12:11:12.654Z,76.75
2023-06-27T12:12:12.635Z,76.65
2023-06-27T12:13:12.669Z,76.34
2023-06-27T12:14:12.621Z,77.15
2023-06-27T12:15:12.610Z,76.34
2023-06-27T12:16:12.609Z,76.31
2023-06-27T12:17:12.578Z,76.81
2023-06-27T12:18:12.578Z,76.61
2023-06-27T12:19:12.597Z,76.71
2023-06-27T12:20:12.622Z,76.78
2023-06-27T12:21:12.621Z,76.78
2023-06-27T12:22:12.525Z,76.67
2023-06-27T12:23:12.518Z,76.57
2023-06-27T12:24:12.587Z,76.67
2023-06-27T12:25:12.513Z,76.43
2023-06-27T12:26:12.480Z,77.04
2023-06-27T12:27:12.464Z,76.98
2023-06-27T12:28:12.464Z,76.84
2023-06-27T12:29:12.480Z,77.04
2023-06-27T12:30:12.441Z,77.04
2023-06-27T12:31:12.575Z,76.54
2023-06-27T12:32:12.415Z,76.54
2023-06-27T12:33:12.400Z,76.74
2023-06-27T12:34:12.400Z,76.54
2023-06-27T12:35:12.384Z,77.34
2023-06-27T12:36:12.367Z,77.50
2023-06-27T12:37:12.410Z,77.54
2023-06-27T12:38:12.347Z,77.40
2023-06-27T12:39:12.330Z,77.30
2023-06-27T12:40:12.401Z,77.30
2023-06-27T12:41:12.345Z,77.40
2023-06-27T12:42:12.301Z,77.20
2023-06-27T12:43:12.342Z,77.20
2023-06-27T12:44:12.273Z,77.30
2023-06-27T12:45:12.262Z,77.30
2023-06-27T12:46:12.252Z,77.17
2023-06-27T12:47:12.248Z,77.56
2023-06-27T12:48:12.306Z,77.67
2023-06-27T12:49:12.264Z,77.60
2023-06-27T12:50:12.212Z,78.20
2023-06-27T12:51:12.231Z,77.30
2023-06-27T12:52:12.190Z,77.91
2023-06-27T12:53:12.218Z,78.20
2023-06-27T12:54:12.163Z,77.50
2023-06-27T12:55:12.235Z,78.30
2023-06-27T12:56:12.237Z,78.30
2023-06-27T12:57:12.147Z,78.41
2023-06-27T12:58:12.120Z,78.60
2023-06-27T12:59:12.129Z,78.41
2023-06-27T13:00:12.098Z,78.41
2023-06-27T13:01:12.332Z,78.41
2023-06-27T13:02:12.120Z,78.50
2023-06-27T13:03:18.435Z,77.80
2023-06-27T13:04:13.046Z,78.74
2023-06-27T13:05:12.037Z,78.74
2023-06-27T13:06:12.034Z,78.50
2023-06-27T13:07:12.106Z,77.84
2023-06-27T13:08:12.038Z,78.64
2023-06-27T13:09:12.034Z,78.54
2023-06-27T13:10:11.978Z,78.84
2023-06-27T13:11:12.021Z,78.60
2023-06-27T13:12:12.052Z,78.41
2023-06-27T13:13:11.979Z,79.00
2023-06-27T13:14:11.936Z,77.80
2023-06-27T13:15:11.931Z,77.06